Kezdőlap
METAR-TAF:

METAR-TAF

Repülőterek :

Cottonwood Pass, Colorado, Amerikai Egyesült Államok

földrajzi szélesség: 38-46-57N, földrajzi hosszúság: 106-13-05W, magasság: 2995 m

Jelenlegi meteorológiai megfigyelések

A jelentés 38 perccel ezelõtt készült, 23:35 UTC
Nyugat-északnyugati szél 21 kt széllökések: 32 kt
Hőmérséklet 10°C
Páratartalom 27%
Légköri nyomás 1020 hPa
Látótávolság: 16.1 km
Derült ég

METAR: K7BM 182335Z AUTO 29021G32KT 10SM CLR 10/M08 A3011 RMK AO2

Idő: 18:13 (00:13 UTC)


TAF: hiányzik

Meteorológiai megfigyelések és előrejelzések több, mint 4000 repülőtéren (METAR és TAF jelentéseket).

A térképen piros és sárga pontok jelzik az elérhető meteorológiai állomásokat.

Mozgassa az egeret a pont fölött, hogy megjelenjen az állomás neve.

Azután kattintson az időjárási megfigyelések és előrejelzések megtekintéséhez.

A térkép megváltoztatása: kattintson a fekete keresztel jelölt zöld gombra ráközelítéshez, a vonallal jelölt zöld gombra távolításhoz, vagy a zöld nyilakra a szomszédos térképek eléréséhez.


METAR-TAF: